Terminal Aerodrome Forecast
Issued by NWS Sterling, VA

Current Version | Previous Version | Graphics & Text | Print | Product List | Glossary On
Versions: 1 2 3 4 5 6 7 8 9 10 11 12 13 14 15 16 17 18 19 20 21 22 23 24
000
FTUS41 KLWX 022045 AAB
TAFIAD
TAF AMD
KIAD 022045Z 0221/0324 30006KT P6SM VCTS BKN050CB
     FM030200 28004KT P6SM BKN060
     FM030300 29004KT P6SM SCT070
     FM030900 32004KT 5SM BR SCT060
     FM031200 32005KT P6SM SCT250
     FM031800 33006KT P6SM SCT050
     FM032300 34004KT P6SM BKN050=

USA.gov is the U.S. government's official web portal to all federal, state and local government web resources and services.